Airfield :
LOGIN :

Register | Disclaimer

   EN    FR    IT 

 










Legend :    VFR   Marginal VFR   IFR   Intensive IFR   Very Intensive IFR
Visi :
Ceiling :
>= 8 km
>= 3000ft
5 to 8 km
1000 to 3000 ft
1500m to 5 km
500 to 1000 ft
800 to 1500m
200 to 500 ft
< 800m
< 200 ft
Symbols :   Thunderstorms  Fog  Heavy snow  Heavy precipitations  Wind > 20 kt
SIGMETs :     Misc.  Thunderstorms  Icing  Turbulence  Mountain Waves  Volcanic Ashes






- Airport Elevation : 17 ft
- IATA code : GRQ


EHGG - Groningen Eelde

CURRENT METAR :
  • 090725Z AUTO 03005KT 340V120 9999 NSC 22/19 Q1020 NOSIG

EXPIRED METARs :
  • 090655Z AUTO 04004KT 010V070 9999 NSC 22/19 Q1020 NOSIG
  • 090625Z AUTO 03005KT 9999 NSC 22/20 Q1019 NOSIG
  • 090555Z AUTO 02004KT 340V050 9999 NSC 21/19 Q1019 NOSIG
  • 090525Z AUTO 03006KT 360V060 9999 NSC 21/19 Q1019 NOSIG
  • 090455Z AUTO 03004KT 9999 NSC 21/19 Q1019 NOSIG

TAF TAF EHGG
Valid from the 09 at 06:00 until the 10 at 12:00 UTC


090503Z 0906/1012 05005KT CAVOK
BECMG 1009/1012 08010KT



MET'MAP, your aeronautical weather chart ! - Copyright ORBIFLY December 2007 - Disclaimer

ORBIFLY MET'MAP TEAM :

Programming & Development : Alexandra Zaïnal
Concept & original design : Baudouin d'Aumeries
Assistance for programming : Marc-Olivier Méhu
Technical & hardware support : Manuel Goepfert

Contact : metmap@orbifly.com




SOURCES & CREDITS :

   NOAA